createdAt,value
2018-07-08T00:03:13.182Z,16.20
2018-07-08T00:08:15.883Z,16.30
2018-07-08T00:13:18.946Z,16.20
2018-07-08T00:18:22.891Z,16.10
2018-07-08T00:23:25.578Z,16.00
2018-07-08T00:28:28.256Z,15.90
2018-07-08T00:33:30.926Z,15.80
2018-07-08T00:38:34.247Z,15.70
2018-07-08T00:43:36.851Z,15.70
2018-07-08T00:48:39.487Z,15.60
2018-07-08T00:53:42.107Z,15.50
2018-07-08T00:58:44.723Z,15.40
2018-07-08T01:03:47.450Z,15.40
2018-07-08T01:08:50.077Z,15.40
2018-07-08T01:13:52.902Z,15.40
2018-07-08T01:18:56.187Z,15.30
2018-07-08T01:23:58.834Z,15.20
2018-07-08T01:29:01.523Z,15.10
2018-07-08T01:34:04.275Z,15.10
2018-07-08T01:39:07.133Z,15.00
2018-07-08T01:44:09.767Z,14.90
2018-07-08T01:54:15.258Z,14.70
2018-07-08T01:59:18.112Z,14.60
2018-07-08T02:04:20.831Z,14.60
2018-07-08T02:09:23.550Z,14.50
2018-07-08T02:14:26.258Z,14.50
2018-07-08T02:19:29.472Z,14.50
2018-07-08T02:24:32.188Z,14.50
2018-07-08T02:29:35.949Z,14.40
2018-07-08T02:34:38.676Z,14.40
2018-07-08T02:39:41.383Z,14.30
2018-07-08T02:44:44.182Z,14.30
2018-07-08T02:54:49.850Z,14.60
2018-07-08T02:59:52.495Z,14.70
2018-07-08T03:04:55.089Z,14.80
2018-07-08T03:09:57.707Z,14.90
2018-07-08T03:15:00.315Z,15.00
2018-07-08T03:20:02.975Z,15.10
2018-07-08T03:25:05.661Z,15.30
2018-07-08T03:30:08.356Z,15.40
2018-07-08T03:35:11.323Z,15.50
2018-07-08T03:40:13.935Z,15.50
2018-07-08T03:50:19.078Z,15.70
2018-07-08T03:55:21.727Z,15.70
2018-07-08T04:00:24.358Z,15.80
2018-07-08T04:05:27.023Z,15.90
2018-07-08T04:10:29.686Z,15.90
2018-07-08T04:15:32.333Z,16.00
2018-07-08T04:20:35.795Z,16.10
2018-07-08T04:25:38.994Z,16.10
2018-07-08T04:30:41.648Z,16.10
2018-07-08T04:35:44.275Z,16.10
2018-07-08T04:40:46.872Z,16.20
2018-07-08T04:45:49.492Z,16.30
2018-07-08T04:50:52.118Z,16.40
2018-07-08T04:55:54.718Z,16.50
2018-07-08T05:00:57.400Z,16.70
2018-07-08T05:06:00.037Z,16.80
2018-07-08T05:11:02.654Z,17.00
2018-07-08T05:16:05.483Z,17.20
2018-07-08T05:21:08.864Z,17.40
2018-07-08T05:26:11.574Z,17.60
2018-07-08T05:31:14.080Z,18.00
2018-07-08T05:36:16.763Z,18.30
2018-07-08T05:41:19.463Z,18.40
2018-07-08T05:46:22.114Z,18.50
2018-07-08T05:51:24.804Z,18.60
2018-07-08T05:56:27.968Z,18.80
2018-07-08T06:01:31.687Z,18.90
2018-07-08T06:06:34.303Z,18.90
2018-07-08T06:11:36.944Z,18.90
2018-07-08T06:16:39.555Z,19.10
2018-07-08T06:21:43.035Z,19.20
2018-07-08T06:26:45.672Z,19.40
2018-07-08T06:31:48.430Z,19.30
2018-07-08T06:36:51.033Z,19.30
2018-07-08T06:41:53.659Z,19.30
2018-07-08T06:46:56.284Z,19.40
2018-07-08T06:51:58.986Z,19.40
2018-07-08T06:57:01.606Z,19.70
2018-07-08T07:02:04.246Z,20.10
2018-07-08T07:07:06.942Z,20.60
2018-07-08T07:12:09.714Z,20.70
2018-07-08T07:17:12.546Z,20.70
2018-07-08T07:22:15.183Z,21.10
2018-07-08T07:27:17.812Z,21.40
2018-07-08T07:32:20.455Z,21.60
2018-07-08T07:37:23.167Z,21.90
2018-07-08T07:42:25.790Z,22.10
2018-07-08T07:47:28.398Z,22.20
2018-07-08T07:52:31.055Z,22.00
2018-07-08T07:57:33.654Z,22.10
2018-07-08T08:02:36.516Z,22.10
2018-07-08T08:07:39.128Z,22.20
2018-07-08T08:12:41.802Z,22.50
2018-07-08T08:17:44.433Z,22.80
2018-07-08T08:22:47.204Z,22.80
2018-07-08T08:27:49.958Z,22.90
2018-07-08T08:32:52.637Z,22.80
2018-07-08T08:37:56.302Z,22.90
2018-07-08T08:42:59.970Z,23.20
2018-07-08T08:48:02.586Z,23.50
2018-07-08T08:53:05.531Z,23.70
2018-07-08T08:58:08.258Z,24.10
2018-07-08T09:03:10.921Z,24.00
2018-07-08T09:08:13.700Z,24.30
2018-07-08T09:13:24.690Z,24.30
2018-07-08T09:18:27.911Z,24.60
2018-07-08T09:23:30.534Z,25.00
2018-07-08T09:28:33.162Z,25.00
2018-07-08T09:33:35.827Z,25.30
2018-07-08T09:38:38.584Z,25.30
2018-07-08T09:43:41.275Z,25.80
2018-07-08T09:48:43.888Z,26.00
2018-07-08T09:53:46.549Z,26.20
2018-07-08T09:58:49.471Z,27.10
2018-07-08T10:03:52.128Z,27.80
2018-07-08T10:08:54.744Z,28.20
2018-07-08T10:13:57.579Z,28.40
2018-07-08T10:19:00.130Z,28.50
2018-07-08T10:24:03.027Z,29.20
2018-07-08T10:29:06.392Z,29.10
2018-07-08T10:34:08.992Z,29.40
2018-07-08T10:39:12.706Z,29.30
2018-07-08T10:44:15.326Z,29.80
2018-07-08T10:49:17.939Z,29.50
2018-07-08T10:54:20.611Z,29.40
2018-07-08T11:04:25.956Z,30.00
2018-07-08T11:09:28.615Z,30.90
2018-07-08T11:14:31.876Z,31.90
2018-07-08T11:19:34.498Z,32.10
2018-07-08T11:24:37.359Z,32.40
2018-07-08T11:29:40.192Z,32.80
2018-07-08T11:34:46.743Z,32.70
2018-07-08T11:39:49.380Z,29.80
2018-07-08T11:44:52.048Z,34.30
2018-07-08T11:49:54.731Z,34.80
2018-07-08T11:54:57.561Z,35.00
2018-07-08T12:00:00.208Z,34.50
2018-07-08T12:05:03.124Z,34.60
2018-07-08T12:10:06.069Z,35.10
2018-07-08T12:15:09.552Z,35.40
2018-07-08T12:20:12.271Z,36.80
2018-07-08T12:25:14.936Z,37.10
2018-07-08T12:30:17.635Z,37.80
2018-07-08T12:35:20.362Z,37.90
2018-07-08T12:40:23.132Z,37.30
2018-07-08T12:45:25.790Z,36.90
2018-07-08T12:50:28.455Z,37.20
2018-07-08T12:55:31.075Z,38.00
2018-07-08T13:00:33.705Z,38.60
2018-07-08T13:05:36.396Z,39.90
2018-07-08T13:10:39.103Z,40.10
2018-07-08T13:15:41.747Z,39.50
2018-07-08T13:20:44.418Z,39.50
2018-07-08T13:25:47.051Z,35.40
2018-07-08T13:30:49.798Z,33.80
2018-07-08T13:35:52.424Z,37.10
2018-07-08T13:40:55.102Z,39.20
2018-07-08T13:45:58.518Z,35.40
2018-07-08T13:51:01.139Z,36.00
2018-07-08T14:01:06.445Z,38.50
2018-07-08T14:06:09.245Z,35.10
2018-07-08T14:11:11.891Z,33.00
2018-07-08T14:16:14.571Z,36.90
2018-07-08T14:21:17.211Z,39.90
2018-07-08T14:26:19.847Z,42.10
2018-07-08T14:31:22.547Z,42.00
2018-07-08T14:36:25.206Z,39.90
2018-07-08T14:41:27.859Z,42.00
2018-07-08T14:46:30.546Z,41.80
2018-07-08T14:51:33.183Z,42.30
2018-07-08T14:56:35.827Z,43.20
2018-07-08T15:01:38.561Z,42.00
2018-07-08T15:06:41.256Z,42.30
2018-07-08T15:11:44.019Z,45.70
2018-07-08T15:16:46.644Z,43.70
2018-07-08T15:21:49.672Z,43.80
2018-07-08T15:26:52.295Z,43.30
2018-07-08T15:31:54.975Z,42.90
2018-07-08T15:36:57.938Z,41.50
2018-07-08T15:42:00.876Z,40.90
2018-07-08T15:47:03.646Z,40.50
2018-07-08T15:52:06.837Z,41.70
2018-07-08T15:57:09.471Z,41.40
2018-07-08T16:02:12.156Z,37.40
2018-07-08T16:07:14.787Z,36.80
2018-07-08T16:12:17.527Z,37.00
2018-07-08T16:17:20.170Z,38.40
2018-07-08T16:22:22.862Z,38.10
2018-07-08T16:27:25.564Z,38.00
2018-07-08T16:32:28.334Z,38.10
2018-07-08T16:37:31.137Z,38.60
2018-07-08T16:42:33.843Z,38.50
2018-07-08T16:47:36.547Z,38.50
2018-07-08T16:52:39.274Z,38.40
2018-07-08T16:57:41.995Z,39.10
2018-07-08T17:02:44.627Z,37.80
2018-07-08T17:07:47.322Z,37.50
2018-07-08T17:12:50.092Z,37.50
2018-07-08T17:17:52.748Z,37.40
2018-07-08T17:22:55.499Z,36.60
2018-07-08T17:27:58.135Z,36.80
2018-07-08T17:33:01.234Z,36.00
2018-07-08T17:38:04.059Z,34.50
2018-07-08T17:43:06.728Z,33.10
2018-07-08T17:48:09.388Z,31.60
2018-07-08T17:53:12.032Z,29.90
2018-07-08T17:58:14.830Z,29.10
2018-07-08T18:03:17.829Z,28.60
2018-07-08T18:08:20.832Z,27.90
2018-07-08T18:13:23.522Z,27.00
2018-07-08T18:18:26.273Z,26.30
2018-07-08T18:23:28.954Z,25.80
2018-07-08T18:28:31.611Z,25.50
2018-07-08T18:33:34.400Z,25.20
2018-07-08T18:38:37.280Z,24.90
2018-07-08T18:43:40.012Z,24.30
2018-07-08T18:48:42.743Z,23.90
2018-07-08T18:53:45.595Z,23.50
2018-07-08T18:58:48.357Z,22.90
2018-07-08T19:03:52.430Z,22.80
2018-07-08T19:08:55.850Z,22.40
2018-07-08T19:13:58.510Z,22.20
2018-07-08T19:19:01.951Z,21.80
2018-07-08T19:24:04.693Z,21.20
2018-07-08T19:29:07.605Z,20.80
2018-07-08T19:34:10.211Z,20.40
2018-07-08T19:39:15.599Z,20.00
2018-07-08T19:44:19.364Z,19.60
2018-07-08T19:49:22.071Z,19.30
2018-07-08T19:54:25.109Z,19.10
2018-07-08T19:59:27.783Z,18.80
2018-07-08T20:04:30.459Z,18.60
2018-07-08T20:09:33.297Z,18.40
2018-07-08T20:14:36.299Z,18.20
2018-07-08T20:19:39.023Z,18.00
2018-07-08T20:24:42.345Z,17.80
2018-07-08T20:29:45.021Z,17.70
2018-07-08T20:34:47.667Z,17.60
2018-07-08T20:39:50.416Z,17.50
2018-07-08T20:44:53.331Z,17.40
2018-07-08T20:49:56.246Z,17.20
2018-07-08T20:55:00.021Z,17.10
2018-07-08T21:00:02.776Z,16.80
2018-07-08T21:05:05.523Z,16.70
2018-07-08T21:10:08.432Z,16.70
2018-07-08T21:15:11.100Z,16.60
2018-07-08T21:20:14.199Z,16.50
2018-07-08T21:25:16.879Z,16.40
2018-07-08T21:30:19.588Z,16.30
2018-07-08T21:35:22.324Z,16.20
2018-07-08T21:40:25.013Z,16.10
2018-07-08T21:45:27.724Z,16.00
2018-07-08T21:50:30.437Z,15.90
2018-07-08T21:55:33.227Z,15.80
2018-07-08T22:00:41.879Z,15.90
2018-07-08T22:05:44.550Z,15.80
2018-07-08T22:10:47.174Z,15.70
2018-07-08T22:15:49.799Z,15.50
2018-07-08T22:20:52.484Z,15.40
2018-07-08T22:25:55.188Z,15.30
2018-07-08T22:30:57.864Z,15.20
2018-07-08T22:36:00.487Z,15.10
2018-07-08T22:41:03.155Z,15.20
2018-07-08T22:46:05.857Z,15.20
2018-07-08T22:51:08.534Z,15.20
2018-07-08T22:56:11.179Z,15.10
2018-07-08T23:01:25.380Z,15.10
2018-07-08T23:06:28.046Z,14.90
2018-07-08T23:11:30.664Z,14.80
2018-07-08T23:16:33.327Z,14.80
2018-07-08T23:21:36.121Z,14.80
2018-07-08T23:26:39.463Z,14.80
2018-07-08T23:31:42.209Z,14.70
2018-07-08T23:36:44.960Z,14.70
2018-07-08T23:41:47.664Z,14.60
2018-07-08T23:46:50.275Z,14.60
2018-07-08T23:51:53.221Z,14.40
2018-07-08T23:56:55.875Z,14.30
